sensor_id;sensor_type;location;lat;lon;timestamp;pressure;altitude;pressure_sealevel;temperature;humidity
37792;BME280;29527;55.766;37.570;2022-11-20T00:00:37;99880.06;;;-1.26;70.56
37792;BME280;29527;55.766;37.570;2022-11-20T00:03:03;99887.59;;;-1.14;70.36
37792;BME280;29527;55.766;37.570;2022-11-20T00:05:28;99874.78;;;-1.25;70.14
37792;BME280;29527;55.766;37.570;2022-11-20T00:07:54;99872.28;;;-1.30;70.75
37792;BME280;29527;55.766;37.570;2022-11-20T00:10:19;99888.44;;;-1.13;70.02
37792;BME280;29527;55.766;37.570;2022-11-20T00:12:44;99885.56;;;-1.06;69.64
37792;BME280;29527;55.766;37.570;2022-11-20T00:15:10;99884.31;;;-1.22;70.06
37792;BME280;29527;55.766;37.570;2022-11-20T00:17:35;99890.44;;;-1.22;70.22
37792;BME280;29527;55.766;37.570;2022-11-20T00:20:01;99882.72;;;-0.99;69.10
37792;BME280;29527;55.766;37.570;2022-11-20T00:22:26;99882.16;;;-1.09;69.39
37792;BME280;29527;55.766;37.570;2022-11-20T00:24:52;99881.78;;;-1.25;69.98
37792;BME280;29527;55.766;37.570;2022-11-20T00:27:17;99886.28;;;-1.01;69.16
37792;BME280;29527;55.766;37.570;2022-11-20T00:29:42;99882.16;;;-1.09;68.90
37792;BME280;29527;55.766;37.570;2022-11-20T00:32:08;99864.13;;;-1.49;69.75
37792;BME280;29527;55.766;37.570;2022-11-20T00:34:33;99888.97;;;-1.31;69.75
37792;BME280;29527;55.766;37.570;2022-11-20T00:36:59;99876.81;;;-1.35;70.00
37792;BME280;29527;55.766;37.570;2022-11-20T00:39:24;99875.34;;;-1.15;68.95
37792;BME280;29527;55.766;37.570;2022-11-20T00:41:49;99881.06;;;-1.31;69.71
37792;BME280;29527;55.766;37.570;2022-11-20T00:44:15;99894.63;;;-1.45;70.89
37792;BME280;29527;55.766;37.570;2022-11-20T00:46:42;99886.22;;;-1.27;69.86
37792;BME280;29527;55.766;37.570;2022-11-20T00:49:07;99883.13;;;-1.12;69.52
37792;BME280;29527;55.766;37.570;2022-11-20T00:51:32;99877.88;;;-1.12;69.11
37792;BME280;29527;55.766;37.570;2022-11-20T00:53:58;99873.81;;;-1.22;69.32
37792;BME280;29527;55.766;37.570;2022-11-20T00:56:25;99877.31;;;-1.22;69.12
37792;BME280;29527;55.766;37.570;2022-11-20T00:58:51;99887.34;;;-1.35;69.91
37792;BME280;29527;55.766;37.570;2022-11-20T01:01:24;99888.19;;;-1.06;68.60
37792;BME280;29527;55.766;37.570;2022-11-20T01:03:51;99882.34;;;-1.14;68.53
37792;BME280;29527;55.766;37.570;2022-11-20T01:06:25;99881.13;;;-1.04;68.06
37792;BME280;29527;55.766;37.570;2022-11-20T01:08:53;99891.06;;;-1.13;68.26
37792;BME280;29527;55.766;37.570;2022-11-20T01:11:23;99882.00;;;-1.33;68.75
37792;BME280;29527;55.766;37.570;2022-11-20T01:13:50;99888.50;;;-1.45;69.60
37792;BME280;29527;55.766;37.570;2022-11-20T01:16:17;99893.84;;;-1.48;69.93
37792;BME280;29527;55.766;37.570;2022-11-20T01:18:45;99884.81;;;-1.38;69.64
37792;BME280;29527;55.766;37.570;2022-11-20T01:21:14;99874.31;;;-1.38;69.50
37792;BME280;29527;55.766;37.570;2022-11-20T01:23:41;99883.34;;;-1.18;68.56
37792;BME280;29527;55.766;37.570;2022-11-20T01:26:12;99874.19;;;-1.35;68.80
37792;BME280;29527;55.766;37.570;2022-11-20T01:28:39;99881.78;;;-1.25;68.07
37792;BME280;29527;55.766;37.570;2022-11-20T01:31:35;99880.97;;;-1.27;68.71
37792;BME280;29527;55.766;37.570;2022-11-20T01:34:04;99878.41;;;-1.29;68.48
37792;BME280;29527;55.766;37.570;2022-11-20T01:36:31;99889.50;;;-1.49;69.16
37792;BME280;29527;55.766;37.570;2022-11-20T01:39:01;99884.72;;;-1.35;68.68
37792;BME280;29527;55.766;37.570;2022-11-20T01:41:29;99896.25;;;-1.40;68.41
37792;BME280;29527;55.766;37.570;2022-11-20T01:44:16;99893.50;;;-1.36;68.27
37792;BME280;29527;55.766;37.570;2022-11-20T01:46:59;99888.25;;;-1.36;68.24
37792;BME280;29527;55.766;37.570;2022-11-20T01:52:01;99902.28;;;-1.37;68.63
37792;BME280;29527;55.766;37.570;2022-11-20T01:54:38;99908.69;;;-1.47;69.19
37792;BME280;29527;55.766;37.570;2022-11-20T01:57:06;99912.13;;;-1.45;68.85
37792;BME280;29527;55.766;37.570;2022-11-20T01:59:37;99917.25;;;-1.40;68.93
37792;BME280;29527;55.766;37.570;2022-11-20T02:02:04;99906.84;;;-1.43;68.60
37792;BME280;29527;55.766;37.570;2022-11-20T02:04:30;99910.41;;;-1.46;68.64
37792;BME280;29527;55.766;37.570;2022-11-20T02:07:05;99908.94;;;-1.55;68.79
37792;BME280;29527;55.766;37.570;2022-11-20T02:09:30;99927.28;;;-1.53;68.97
37792;BME280;29527;55.766;37.570;2022-11-20T02:11:57;99928.66;;;-1.40;68.52
37792;BME280;29527;55.766;37.570;2022-11-20T02:14:24;99927.75;;;-1.39;68.25
37792;BME280;29527;55.766;37.570;2022-11-20T02:16:50;99927.34;;;-1.55;69.05
37792;BME280;29527;55.766;37.570;2022-11-20T02:19:26;99928.25;;;-1.56;69.00
37792;BME280;29527;55.766;37.570;2022-11-20T02:22:12;99927.28;;;-1.53;69.56
37792;BME280;29527;55.766;37.570;2022-11-20T02:24:39;99926.16;;;-1.45;68.90
37792;BME280;29527;55.766;37.570;2022-11-20T02:27:09;99934.16;;;-1.49;69.17
37792;BME280;29527;55.766;37.570;2022-11-20T02:29:42;99938.69;;;-1.54;70.11
37792;BME280;29527;55.766;37.570;2022-11-20T02:34:44;99929.25;;;-1.32;68.60
37792;BME280;29527;55.766;37.570;2022-11-20T02:37:10;99909.19;;;-1.64;69.33
37792;BME280;29527;55.766;37.570;2022-11-20T02:39:35;99943.03;;;-1.53;69.86
37792;BME280;29527;55.766;37.570;2022-11-20T02:42:01;99937.13;;;-1.30;68.55
37792;BME280;29527;55.766;37.570;2022-11-20T02:44:27;99935.97;;;-1.51;69.63
37792;BME280;29527;55.766;37.570;2022-11-20T02:46:53;99943.41;;;-1.36;69.45
37792;BME280;29527;55.766;37.570;2022-11-20T02:49:18;99937.16;;;-1.32;68.45
37792;BME280;29527;55.766;37.570;2022-11-20T02:51:44;99912.97;;;-1.43;68.55
37792;BME280;29527;55.766;37.570;2022-11-20T02:54:09;99948.25;;;-1.52;69.37
37792;BME280;29527;55.766;37.570;2022-11-20T02:56:37;99947.38;;;-1.52;69.66
37792;BME280;29527;55.766;37.570;2022-11-20T02:59:03;99947.38;;;-1.52;69.89
37792;BME280;29527;55.766;37.570;2022-11-20T03:01:29;99933.50;;;-1.56;69.70
37792;BME280;29527;55.766;37.570;2022-11-20T03:03:55;99949.66;;;-1.40;68.96
37792;BME280;29527;55.766;37.570;2022-11-20T03:06:21;99945.56;;;-1.50;68.94
37792;BME280;29527;55.766;37.570;2022-11-20T03:08:47;99951.63;;;-1.48;70.04
37792;BME280;29527;55.766;37.570;2022-11-20T03:11:12;99924.81;;;-1.60;70.02
37792;BME280;29527;55.766;37.570;2022-11-20T03:13:38;99952.56;;;-1.19;68.40
37792;BME280;29527;55.766;37.570;2022-11-20T03:16:12;99953.22;;;-1.12;68.02
37792;BME280;29527;55.766;37.570;2022-11-20T03:18:39;99946.47;;;-1.21;67.89
37792;BME280;29527;55.766;37.570;2022-11-20T03:21:04;99951.91;;;-1.27;67.76
37792;BME280;29527;55.766;37.570;2022-11-20T03:23:31;99956.03;;;-1.49;69.39
37792;BME280;29527;55.766;37.570;2022-11-20T03:26:18;99957.69;;;-1.46;69.89
37792;BME280;29527;55.766;37.570;2022-11-20T03:28:49;99958.47;;;-1.42;69.05
37792;BME280;29527;55.766;37.570;2022-11-20T03:31:16;99961.59;;;-1.30;68.31
37792;BME280;29527;55.766;37.570;2022-11-20T03:33:42;99962.00;;;-1.43;68.62
37792;BME280;29527;55.766;37.570;2022-11-20T03:36:13;99963.84;;;-1.47;69.01
37792;BME280;29527;55.766;37.570;2022-11-20T03:38:39;99962.13;;;-1.48;69.07
37792;BME280;29527;55.766;37.570;2022-11-20T03:41:08;99960.25;;;-1.43;69.23
37792;BME280;29527;55.766;37.570;2022-11-20T03:43:34;99956.72;;;-1.42;69.53
37792;BME280;29527;55.766;37.570;2022-11-20T03:46:00;99957.44;;;-1.37;68.58
37792;BME280;29527;55.766;37.570;2022-11-20T03:48:26;99964.28;;;-1.31;68.39
37792;BME280;29527;55.766;37.570;2022-11-20T03:50:53;99962.63;;;-1.35;68.67
37792;BME280;29527;55.766;37.570;2022-11-20T03:53:19;99966.44;;;-1.46;68.77
37792;BME280;29527;55.766;37.570;2022-11-20T03:55:49;99976.06;;;-1.46;69.49
37792;BME280;29527;55.766;37.570;2022-11-20T03:58:15;99980.19;;;-1.36;68.54
37792;BME280;29527;55.766;37.570;2022-11-20T04:00:40;99984.34;;;-1.28;68.56
37792;BME280;29527;55.766;37.570;2022-11-20T04:03:06;99976.81;;;-1.41;68.94
37792;BME280;29527;55.766;37.570;2022-11-20T04:05:33;99982.00;;;-1.38;69.19
37792;BME280;29527;55.766;37.570;2022-11-20T04:07:59;99984.53;;;-1.35;69.14
37792;BME280;29527;55.766;37.570;2022-11-20T04:10:24;99983.34;;;-1.24;67.83
37792;BME280;29527;55.766;37.570;2022-11-20T04:12:49;99985.47;;;-1.37;67.88
37792;BME280;29527;55.766;37.570;2022-11-20T04:15:15;99982.91;;;-1.39;67.69
37792;BME280;29527;55.766;37.570;2022-11-20T04:17:40;99983.13;;;-1.48;68.59
37792;BME280;29527;55.766;37.570;2022-11-20T04:20:06;99988.47;;;-1.51;68.20
37792;BME280;29527;55.766;37.570;2022-11-20T04:22:32;100007.53;;;-1.43;68.26
37792;BME280;29527;55.766;37.570;2022-11-20T04:24:57;99966.03;;;-1.62;67.28
37792;BME280;29527;55.766;37.570;2022-11-20T04:27:22;100009.41;;;-1.48;67.64
37792;BME280;29527;55.766;37.570;2022-11-20T04:29:48;100002.50;;;-1.52;68.85
37792;BME280;29527;55.766;37.570;2022-11-20T04:32:13;100005.88;;;-1.47;69.00
37792;BME280;29527;55.766;37.570;2022-11-20T04:34:39;99996.94;;;-1.40;68.22
37792;BME280;29527;55.766;37.570;2022-11-20T04:37:04;100001.91;;;-1.31;67.23
37792;BME280;29527;55.766;37.570;2022-11-20T04:39:30;100003.09;;;-1.41;67.76
37792;BME280;29527;55.766;37.570;2022-11-20T04:41:55;100018.19;;;-1.49;68.04
37792;BME280;29527;55.766;37.570;2022-11-20T04:44:39;100020.69;;;-1.45;67.95
37792;BME280;29527;55.766;37.570;2022-11-20T04:47:05;100024.50;;;-1.55;68.57
37792;BME280;29527;55.766;37.570;2022-11-20T04:49:31;100037.31;;;-1.44;68.41
37792;BME280;29527;55.766;37.570;2022-11-20T04:51:57;100032.94;;;-1.45;68.04
37792;BME280;29527;55.766;37.570;2022-11-20T04:54:22;100037.16;;;-1.38;67.34
37792;BME280;29527;55.766;37.570;2022-11-20T04:56:48;100046.94;;;-1.43;67.81
37792;BME280;29527;55.766;37.570;2022-11-20T04:59:14;100040.81;;;-1.45;67.57
37792;BME280;29527;55.766;37.570;2022-11-20T05:01:39;100038.34;;;-1.50;67.65
37792;BME280;29527;55.766;37.570;2022-11-20T05:04:05;100047.16;;;-1.19;67.36
37792;BME280;29527;55.766;37.570;2022-11-20T05:06:31;100048.59;;;-1.09;65.70
37792;BME280;29527;55.766;37.570;2022-11-20T05:08:56;100042.50;;;-1.41;66.83
37792;BME280;29527;55.766;37.570;2022-11-20T05:11:21;100046.69;;;-1.35;66.41
37792;BME280;29527;55.766;37.570;2022-11-20T05:13:48;100032.56;;;-1.63;67.10
37792;BME280;29527;55.766;37.570;2022-11-20T05:16:16;100046.94;;;-1.45;66.61
37792;BME280;29527;55.766;37.570;2022-11-20T05:18:42;100062.59;;;-1.40;66.62
37792;BME280;29527;55.766;37.570;2022-11-20T05:21:09;100057.56;;;-1.49;67.15
37792;BME280;29527;55.766;37.570;2022-11-20T05:23:36;100062.75;;;-1.46;66.97
37792;BME280;29527;55.766;37.570;2022-11-20T05:26:02;100065.34;;;-1.45;66.27
37792;BME280;29527;55.766;37.570;2022-11-20T05:28:29;100055.94;;;-1.53;66.73
37792;BME280;29527;55.766;37.570;2022-11-20T05:30:55;100050.81;;;-1.58;66.63
37792;BME280;29527;55.766;37.570;2022-11-20T05:33:21;100060.09;;;-1.46;65.83
37792;BME280;29527;55.766;37.570;2022-11-20T05:35:46;100065.63;;;-1.55;66.63
37792;BME280;29527;55.766;37.570;2022-11-20T05:38:13;100054.13;;;-1.84;67.27
37792;BME280;29527;55.766;37.570;2022-11-20T05:40:39;100081.56;;;-1.62;67.53
37792;BME280;29527;55.766;37.570;2022-11-20T05:43:04;100059.28;;;-1.81;67.21
37792;BME280;29527;55.766;37.570;2022-11-20T05:45:30;100085.72;;;-1.54;66.11
37792;BME280;29527;55.766;37.570;2022-11-20T05:47:59;100076.22;;;-1.59;66.93
37792;BME280;29527;55.766;37.570;2022-11-20T05:50:26;100084.81;;;-1.53;66.70
37792;BME280;29527;55.766;37.570;2022-11-20T05:52:52;100086.88;;;-1.65;67.07
37792;BME280;29527;55.766;37.570;2022-11-20T05:55:17;100095.59;;;-1.64;66.72
37792;BME280;29527;55.766;37.570;2022-11-20T05:57:43;100094.53;;;-1.57;66.89
37792;BME280;29527;55.766;37.570;2022-11-20T06:00:09;100095.50;;;-1.60;66.52
37792;BME280;29527;55.766;37.570;2022-11-20T06:02:35;100100.84;;;-1.63;66.70
37792;BME280;29527;55.766;37.570;2022-11-20T06:05:01;100110.50;;;-1.65;67.31
37792;BME280;29527;55.766;37.570;2022-11-20T06:07:26;100112.72;;;-1.49;66.62
37792;BME280;29527;55.766;37.570;2022-11-20T06:09:52;100113.69;;;-1.52;66.96
37792;BME280;29527;55.766;37.570;2022-11-20T06:12:17;100109.19;;;-1.48;67.46
37792;BME280;29527;55.766;37.570;2022-11-20T06:14:43;100123.75;;;-1.36;67.26
37792;BME280;29527;55.766;37.570;2022-11-20T06:17:08;100124.28;;;-1.23;66.64
37792;BME280;29527;55.766;37.570;2022-11-20T06:19:33;100121.44;;;-1.14;66.25
37792;BME280;29527;55.766;37.570;2022-11-20T06:21:59;100115.31;;;-1.14;66.58
37792;BME280;29527;55.766;37.570;2022-11-20T06:24:24;100143.19;;;-1.09;66.36
37792;BME280;29527;55.766;37.570;2022-11-20T06:26:51;100120.63;;;-1.16;66.35
37792;BME280;29527;55.766;37.570;2022-11-20T06:29:16;100140.47;;;-1.06;66.07
37792;BME280;29527;55.766;37.570;2022-11-20T06:31:41;100151.09;;;-1.10;66.06
37792;BME280;29527;55.766;37.570;2022-11-20T06:34:07;100153.78;;;-1.12;66.56
37792;BME280;29527;55.766;37.570;2022-11-20T06:36:33;100130.50;;;-1.26;66.45
37792;BME280;29527;55.766;37.570;2022-11-20T06:39:00;100127.75;;;-1.21;66.87
37792;BME280;29527;55.766;37.570;2022-11-20T06:41:25;100122.28;;;-1.13;66.39
37792;BME280;29527;55.766;37.570;2022-11-20T06:43:51;100154.06;;;-0.90;66.02
37792;BME280;29527;55.766;37.570;2022-11-20T06:46:18;100153.03;;;-0.84;65.94
37792;BME280;29527;55.766;37.570;2022-11-20T06:48:44;100154.47;;;-0.74;65.15
37792;BME280;29527;55.766;37.570;2022-11-20T06:51:09;100107.94;;;-1.02;65.70
37792;BME280;29527;55.766;37.570;2022-11-20T06:53:35;100137.88;;;-0.76;65.86
37792;BME280;29527;55.766;37.570;2022-11-20T06:56:01;100136.91;;;-0.71;65.11
37792;BME280;29527;55.766;37.570;2022-11-20T06:58:29;100139.47;;;-0.70;64.46
37792;BME280;29527;55.766;37.570;2022-11-20T07:01:03;100149.72;;;-0.61;64.70
37792;BME280;29527;55.766;37.570;2022-11-20T07:03:29;100146.22;;;-0.60;65.16
37792;BME280;29527;55.766;37.570;2022-11-20T07:05:56;100154.84;;;-0.56;65.15
37792;BME280;29527;55.766;37.570;2022-11-20T07:08:22;100155.44;;;-0.46;64.32
37792;BME280;29527;55.766;37.570;2022-11-20T07:10:47;100138.63;;;-0.40;64.40
37792;BME280;29527;55.766;37.570;2022-11-20T07:13:13;100125.47;;;-0.40;63.79
37792;BME280;29527;55.766;37.570;2022-11-20T07:15:39;100107.97;;;-0.41;63.46
37792;BME280;29527;55.766;37.570;2022-11-20T07:18:04;100136.34;;;-0.23;63.45
37792;BME280;29527;55.766;37.570;2022-11-20T07:20:30;100139.00;;;-0.24;63.10
37792;BME280;29527;55.766;37.570;2022-11-20T07:22:56;100151.38;;;-0.28;63.30
37792;BME280;29527;55.766;37.570;2022-11-20T07:25:23;100153.31;;;-0.33;63.17
37792;BME280;29527;55.766;37.570;2022-11-20T07:27:49;100158.28;;;-0.54;63.24
37792;BME280;29527;55.766;37.570;2022-11-20T07:30:16;100163.25;;;-0.43;63.09
37792;BME280;29527;55.766;37.570;2022-11-20T07:32:41;100152.34;;;-0.61;63.81
37792;BME280;29527;55.766;37.570;2022-11-20T07:35:07;100146.25;;;-0.61;64.12
37792;BME280;29527;55.766;37.570;2022-11-20T07:37:35;100159.00;;;-0.49;63.23
37792;BME280;29527;55.766;37.570;2022-11-20T07:40:01;100150.25;;;-0.48;63.71
37792;BME280;29527;55.766;37.570;2022-11-20T07:42:27;100155.56;;;-0.51;63.78
37792;BME280;29527;55.766;37.570;2022-11-20T07:44:52;100159.88;;;-0.47;63.93
37792;BME280;29527;55.766;37.570;2022-11-20T07:47:18;100169.19;;;-0.36;63.89
37792;BME280;29527;55.766;37.570;2022-11-20T07:49:44;100172.44;;;-0.28;63.29
37792;BME280;29527;55.766;37.570;2022-11-20T07:52:09;100142.88;;;-0.36;63.15
37792;BME280;29527;55.766;37.570;2022-11-20T07:54:34;100166.59;;;-0.08;62.29
37792;BME280;29527;55.766;37.570;2022-11-20T07:57:00;100170.47;;;-0.20;62.95
37792;BME280;29527;55.766;37.570;2022-11-20T07:59:25;100165.91;;;-0.15;62.64
37792;BME280;29527;55.766;37.570;2022-11-20T08:01:50;100178.16;;;-0.13;62.74
37792;BME280;29527;55.766;37.570;2022-11-20T08:04:16;100168.69;;;-0.19;63.24
37792;BME280;29527;55.766;37.570;2022-11-20T08:06:42;100182.72;;;-0.19;63.15
37792;BME280;29527;55.766;37.570;2022-11-20T08:09:07;100186.06;;;-0.13;62.38
37792;BME280;29527;55.766;37.570;2022-11-20T08:11:32;100169.69;;;-0.23;62.92
37792;BME280;29527;55.766;37.570;2022-11-20T08:14:16;100174.66;;;-0.14;62.50
37792;BME280;29527;55.766;37.570;2022-11-20T08:16:47;100172.13;;;-0.17;63.07
37792;BME280;29527;55.766;37.570;2022-11-20T08:19:13;100188.56;;;-0.09;62.25
37792;BME280;29527;55.766;37.570;2022-11-20T08:21:39;100172.47;;;0.01;61.84
37792;BME280;29527;55.766;37.570;2022-11-20T08:24:06;100190.19;;;-0.05;63.03
37792;BME280;29527;55.766;37.570;2022-11-20T08:26:32;100183.88;;;0.01;62.13
37792;BME280;29527;55.766;37.570;2022-11-20T08:28:58;100183.00;;;0.01;62.25
37792;BME280;29527;55.766;37.570;2022-11-20T08:31:25;100186.88;;;-0.11;62.47
37792;BME280;29527;55.766;37.570;2022-11-20T08:33:51;100186.84;;;-0.10;62.67
37792;BME280;29527;55.766;37.570;2022-11-20T08:36:18;100197.78;;;0.05;62.36
37792;BME280;29527;55.766;37.570;2022-11-20T08:38:47;100189.66;;;0.12;61.92
37792;BME280;29527;55.766;37.570;2022-11-20T08:41:13;100195.03;;;0.09;62.22
37792;BME280;29527;55.766;37.570;2022-11-20T08:43:58;100201.69;;;0.20;62.03
37792;BME280;29527;55.766;37.570;2022-11-20T08:46:26;100203.09;;;0.32;61.81
37792;BME280;29527;55.766;37.570;2022-11-20T08:48:52;100193.44;;;0.32;61.73
37792;BME280;29527;55.766;37.570;2022-11-20T08:51:18;100210.66;;;0.42;61.47
37792;BME280;29527;55.766;37.570;2022-11-20T08:53:44;100208.22;;;0.36;61.29
37792;BME280;29527;55.766;37.570;2022-11-20T08:56:10;100209.22;;;0.32;62.10
37792;BME280;29527;55.766;37.570;2022-11-20T08:58:36;100217.72;;;0.40;61.54
37792;BME280;29527;55.766;37.570;2022-11-20T09:01:01;100221.38;;;0.36;61.52
37792;BME280;29527;55.766;37.570;2022-11-20T09:03:27;100225.72;;;0.39;61.82
37792;BME280;29527;55.766;37.570;2022-11-20T09:06:19;100226.78;;;0.60;62.15
37792;BME280;29527;55.766;37.570;2022-11-20T09:08:44;100237.22;;;0.63;61.98
37792;BME280;29527;55.766;37.570;2022-11-20T09:11:10;100250.13;;;0.71;62.03
37792;BME280;29527;55.766;37.570;2022-11-20T09:13:36;100244.84;;;0.73;61.99
37792;BME280;29527;55.766;37.570;2022-11-20T09:16:05;100242.03;;;0.77;61.01
37792;BME280;29527;55.766;37.570;2022-11-20T09:18:31;100252.56;;;0.77;61.89
37792;BME280;29527;55.766;37.570;2022-11-20T09:21:02;100258.50;;;0.84;61.14
37792;BME280;29527;55.766;37.570;2022-11-20T09:23:32;100260.44;;;0.79;61.71
37792;BME280;29527;55.766;37.570;2022-11-20T09:26:05;100272.81;;;0.77;62.17
37792;BME280;29527;55.766;37.570;2022-11-20T09:28:31;100275.34;;;0.80;61.79
37792;BME280;29527;55.766;37.570;2022-11-20T09:30:57;100274.53;;;0.78;62.17
37792;BME280;29527;55.766;37.570;2022-11-20T09:33:23;100272.59;;;0.83;62.60
37792;BME280;29527;55.766;37.570;2022-11-20T09:35:48;100281.19;;;0.88;62.25
37792;BME280;29527;55.766;37.570;2022-11-20T09:38:13;100284.75;;;0.87;62.37
37792;BME280;29527;55.766;37.570;2022-11-20T09:40:54;100294.28;;;0.91;62.64
37792;BME280;29527;55.766;37.570;2022-11-20T09:43:31;100293.53;;;0.88;63.09
37792;BME280;29527;55.766;37.570;2022-11-20T09:46:12;100285.75;;;0.84;62.40
37792;BME280;29527;55.766;37.570;2022-11-20T09:54:15;100285.78;;;0.83;62.94
37792;BME280;29527;55.766;37.570;2022-11-20T09:56:44;100286.69;;;0.82;62.38
37792;BME280;29527;55.766;37.570;2022-11-20T09:59:35;100284.97;;;0.81;63.05
37792;BME280;29527;55.766;37.570;2022-11-20T10:02:02;100286.91;;;0.76;63.24
37792;BME280;29527;55.766;37.570;2022-11-20T10:04:39;100291.09;;;0.81;63.06
37792;BME280;29527;55.766;37.570;2022-11-20T10:07:14;100286.59;;;0.85;63.06
37792;BME280;29527;55.766;37.570;2022-11-20T10:09:50;100296.19;;;0.88;63.39
37792;BME280;29527;55.766;37.570;2022-11-20T10:12:31;100286.38;;;0.91;63.29
37792;BME280;29527;55.766;37.570;2022-11-20T10:18:05;100299.75;;;1.12;63.45
37792;BME280;29527;55.766;37.570;2022-11-20T10:20:45;100292.72;;;1.12;64.49
37792;BME280;29527;55.766;37.570;2022-11-20T10:25:50;100306.59;;;1.18;63.71
37792;BME280;29527;55.766;37.570;2022-11-20T10:29:10;100306.28;;;1.27;63.95
37792;BME280;29527;55.766;37.570;2022-11-20T10:31:41;100305.72;;;1.17;63.88
37792;BME280;29527;55.766;37.570;2022-11-20T10:37:22;100294.59;;;1.09;64.18
37792;BME280;29527;55.766;37.570;2022-11-20T10:40:00;100312.09;;;1.11;64.37
37792;BME280;29527;55.766;37.570;2022-11-20T10:42:43;100304.81;;;1.18;64.45
37792;BME280;29527;55.766;37.570;2022-11-20T10:45:18;100301.19;;;1.22;63.98
37792;BME280;29527;55.766;37.570;2022-11-20T10:47:45;100296.72;;;1.24;63.55
37792;BME280;29527;55.766;37.570;2022-11-20T10:50:16;100313.91;;;1.36;63.57
37792;BME280;29527;55.766;37.570;2022-11-20T10:55:42;100325.72;;;1.50;62.25
37792;BME280;29527;55.766;37.570;2022-11-20T10:58:13;100317.44;;;1.35;62.80
37792;BME280;29527;55.766;37.570;2022-11-20T11:00:42;100328.97;;;1.33;62.63
37792;BME280;29527;55.766;37.570;2022-11-20T11:03:34;100326.06;;;1.40;62.71
37792;BME280;29527;55.766;37.570;2022-11-20T11:06:03;100321.03;;;1.33;62.75
37792;BME280;29527;55.766;37.570;2022-11-20T11:08:37;100324.56;;;1.33;62.77
37792;BME280;29527;55.766;37.570;2022-11-20T11:13:46;100330.91;;;1.27;62.71
37792;BME280;29527;55.766;37.570;2022-11-20T11:16:22;100347.47;;;1.31;62.24
37792;BME280;29527;55.766;37.570;2022-11-20T11:18:48;100341.00;;;1.14;62.39
37792;BME280;29527;55.766;37.570;2022-11-20T11:21:21;100348.75;;;1.19;63.21
37792;BME280;29527;55.766;37.570;2022-11-20T11:23:58;100347.09;;;1.17;62.09
37792;BME280;29527;55.766;37.570;2022-11-20T11:26:24;100341.25;;;1.07;62.62
37792;BME280;29527;55.766;37.570;2022-11-20T11:31:28;100341.34;;;1.04;62.79
37792;BME280;29527;55.766;37.570;2022-11-20T11:34:15;100346.44;;;1.08;62.61
37792;BME280;29527;55.766;37.570;2022-11-20T11:36:41;100347.72;;;0.96;62.38
37792;BME280;29527;55.766;37.570;2022-11-20T11:39:15;100352.00;;;1.00;62.58
37792;BME280;29527;55.766;37.570;2022-11-20T11:41:42;100326.25;;;0.80;62.47
37792;BME280;29527;55.766;37.570;2022-11-20T11:44:27;100346.84;;;0.97;62.68
37792;BME280;29527;55.766;37.570;2022-11-20T11:47:33;100339.00;;;0.94;63.09
37792;BME280;29527;55.766;37.570;2022-11-20T11:52:30;100348.94;;;0.86;62.86
37792;BME280;29527;55.766;37.570;2022-11-20T11:55:02;100351.34;;;0.94;63.03
37792;BME280;29527;55.766;37.570;2022-11-20T11:57:49;100358.94;;;1.03;62.44
37792;BME280;29527;55.766;37.570;2022-11-20T12:00:19;100357.38;;;0.97;61.81
37792;BME280;29527;55.766;37.570;2022-11-20T12:07:47;100365.44;;;0.93;61.91
37792;BME280;29527;55.766;37.570;2022-11-20T12:10:48;100364.31;;;1.00;61.49
37792;BME280;29527;55.766;37.570;2022-11-20T12:15:59;100365.78;;;0.82;61.38
37792;BME280;29527;55.766;37.570;2022-11-20T12:18:27;100374.50;;;0.84;60.97
37792;BME280;29527;55.766;37.570;2022-11-20T12:21:12;100372.56;;;0.89;61.15
37792;BME280;29527;55.766;37.570;2022-11-20T12:24:10;100359.38;;;0.89;60.97
37792;BME280;29527;55.766;37.570;2022-11-20T12:30:08;100363.13;;;0.82;60.54
37792;BME280;29527;55.766;37.570;2022-11-20T12:47:51;100364.88;;;0.81;60.99
37792;BME280;29527;55.766;37.570;2022-11-20T12:53:09;100363.50;;;0.69;60.04
37792;BME280;29527;55.766;37.570;2022-11-20T13:03:38;100382.16;;;0.63;60.81
37792;BME280;29527;55.766;37.570;2022-11-20T13:06:19;100376.78;;;0.66;60.61
37792;BME280;29527;55.766;37.570;2022-11-20T13:08:52;100380.44;;;0.62;60.69
37792;BME280;29527;55.766;37.570;2022-11-20T13:11:32;100373.44;;;0.61;60.88
37792;BME280;29527;55.766;37.570;2022-11-20T13:16:53;100382.44;;;0.54;59.56
37792;BME280;29527;55.766;37.570;2022-11-20T13:19:21;100379.34;;;0.39;59.70
37792;BME280;29527;55.766;37.570;2022-11-20T13:21:48;100381.25;;;0.34;60.75
37792;BME280;29527;55.766;37.570;2022-11-20T13:26:45;100376.06;;;0.31;61.17
37792;BME280;29527;55.766;37.570;2022-11-20T13:29:16;100390.75;;;0.40;60.93
37792;BME280;29527;55.766;37.570;2022-11-20T13:31:46;100387.97;;;0.45;61.31
37792;BME280;29527;55.766;37.570;2022-11-20T13:34:23;100373.34;;;0.34;61.34
37792;BME280;29527;55.766;37.570;2022-11-20T13:36:54;100393.06;;;0.51;61.31
37792;BME280;29527;55.766;37.570;2022-11-20T13:39:27;100399.25;;;0.50;61.41
37792;BME280;29527;55.766;37.570;2022-11-20T13:41:56;100384.59;;;0.39;60.77
37792;BME280;29527;55.766;37.570;2022-11-20T13:44:38;100407.06;;;0.53;60.33
37792;BME280;29527;55.766;37.570;2022-11-20T13:47:20;100407.00;;;0.54;60.51
37792;BME280;29527;55.766;37.570;2022-11-20T13:49:47;100400.22;;;0.46;60.20
37792;BME280;29527;55.766;37.570;2022-11-20T14:01:08;100420.19;;;0.54;61.14
37792;BME280;29527;55.766;37.570;2022-11-20T14:03:34;100405.59;;;0.42;61.38
37792;BME280;29527;55.766;37.570;2022-11-20T14:06:05;100412.50;;;0.47;61.18
37792;BME280;29527;55.766;37.570;2022-11-20T14:08:44;100420.34;;;0.50;61.14
37792;BME280;29527;55.766;37.570;2022-11-20T14:11:17;100421.97;;;0.54;61.17
37792;BME280;29527;55.766;37.570;2022-11-20T14:16:26;100418.72;;;0.44;61.04
37792;BME280;29527;55.766;37.570;2022-11-20T14:18:53;100426.72;;;0.41;61.28
37792;BME280;29527;55.766;37.570;2022-11-20T14:21:27;100431.84;;;0.46;61.46